createdAt,value
2018-09-05T00:01:34.474Z,38.13
2018-09-05T00:04:02.677Z,37.10
2018-09-05T00:06:30.930Z,37.17
2018-09-05T00:08:59.241Z,38.90
2018-09-05T00:11:28.105Z,38.03
2018-09-05T00:13:56.614Z,39.10
2018-09-05T00:16:24.907Z,39.70
2018-09-05T00:18:53.245Z,42.27
2018-09-05T00:21:21.501Z,39.37
2018-09-05T00:23:49.789Z,37.50
2018-09-05T00:26:18.093Z,40.30
2018-09-05T00:28:46.382Z,38.43
2018-09-05T00:31:14.762Z,39.20
2018-09-05T00:33:43.057Z,39.17
2018-09-05T00:36:11.329Z,37.77
2018-09-05T00:38:39.701Z,38.17
2018-09-05T00:41:07.962Z,40.97
2018-09-05T00:43:36.222Z,37.30
2018-09-05T00:46:04.489Z,37.47
2018-09-05T00:48:32.769Z,39.00
2018-09-05T00:51:01.085Z,39.63
2018-09-05T00:53:30.221Z,36.63
2018-09-05T00:55:58.506Z,36.70
2018-09-05T00:58:26.771Z,37.67
2018-09-05T01:00:55.078Z,37.20
2018-09-05T01:03:23.314Z,38.77
2018-09-05T01:05:51.767Z,39.47
2018-09-05T01:08:20.019Z,40.37
2018-09-05T01:10:48.294Z,39.60
2018-09-05T01:13:16.597Z,38.60
2018-09-05T01:15:44.876Z,37.20
2018-09-05T01:18:13.208Z,39.10
2018-09-05T01:20:41.440Z,38.87
2018-09-05T01:23:09.738Z,40.07
2018-09-05T01:25:59.304Z,39.53
2018-09-05T01:28:27.958Z,38.20
2018-09-05T01:30:56.193Z,39.90
2018-09-05T01:33:24.385Z,37.83
2018-09-05T01:35:56.749Z,39.50
2018-09-05T01:38:24.961Z,39.57
2018-09-05T01:40:53.288Z,39.10
2018-09-05T01:43:21.536Z,39.47
2018-09-05T01:45:50.781Z,39.27
2018-09-05T01:48:19.033Z,39.23
2018-09-05T01:50:47.337Z,38.10
2018-09-05T01:53:15.609Z,38.40
2018-09-05T01:55:43.833Z,37.77
2018-09-05T01:58:12.129Z,38.60
2018-09-05T02:00:40.377Z,38.47
2018-09-05T02:03:08.670Z,36.93
2018-09-05T02:05:36.965Z,37.57
2018-09-05T02:08:05.258Z,37.10
2018-09-05T02:10:33.553Z,37.93
2018-09-05T02:13:02.217Z,36.93
2018-09-05T02:15:30.609Z,38.20
2018-09-05T02:17:58.855Z,37.27
2018-09-05T02:20:27.125Z,34.37
2018-09-05T02:22:55.301Z,38.63
2018-09-05T02:25:23.519Z,37.73
2018-09-05T02:27:51.781Z,39.47
2018-09-05T02:30:20.114Z,40.53
2018-09-05T02:32:48.357Z,38.47
2018-09-05T02:35:16.626Z,40.87
2018-09-05T02:37:44.969Z,41.93
2018-09-05T02:40:13.269Z,40.87
2018-09-05T02:42:41.511Z,44.07
2018-09-05T02:45:09.789Z,43.17
2018-09-05T02:47:37.969Z,44.30
2018-09-05T02:50:06.306Z,43.87
2018-09-05T02:52:35.396Z,41.70
2018-09-05T02:55:03.610Z,39.20
2018-09-05T02:57:31.816Z,38.77
2018-09-05T03:00:00.042Z,40.40
2018-09-05T03:02:28.222Z,40.70
2018-09-05T03:04:56.413Z,37.50
2018-09-05T03:07:24.598Z,38.70
2018-09-05T03:09:52.801Z,39.03
2018-09-05T03:12:22.078Z,34.43
2018-09-05T03:14:51.470Z,35.00
2018-09-05T03:17:19.977Z,36.37
2018-09-05T03:19:48.326Z,35.33
2018-09-05T03:22:16.551Z,36.17
2018-09-05T03:24:44.741Z,37.83
2018-09-05T03:27:12.938Z,35.27
2018-09-05T03:29:41.150Z,36.70
2018-09-05T03:32:09.347Z,37.13
2018-09-05T03:34:37.793Z,36.97
2018-09-05T03:37:06.054Z,37.90
2018-09-05T03:39:34.302Z,39.27
2018-09-05T03:42:02.601Z,38.97
2018-09-05T03:44:30.786Z,41.77
2018-09-05T03:46:58.989Z,42.60
2018-09-05T03:49:27.247Z,42.47
2018-09-05T03:51:55.529Z,41.43
2018-09-05T03:54:23.713Z,41.70
2018-09-05T03:56:51.910Z,44.73
2018-09-05T03:59:20.162Z,42.97
2018-09-05T04:01:48.334Z,42.03
2018-09-05T04:04:16.535Z,47.20
2018-09-05T04:06:44.745Z,46.87
2018-09-05T04:09:13.287Z,49.90
2018-09-05T04:11:41.551Z,48.37
2018-09-05T04:14:09.853Z,47.03
2018-09-05T04:16:38.129Z,51.00
2018-09-05T04:19:06.482Z,45.47
2018-09-05T04:21:34.814Z,44.77
2018-09-05T04:24:03.081Z,46.30
2018-09-05T04:26:31.374Z,47.30
2018-09-05T04:28:59.782Z,48.00
2018-09-05T04:31:27.993Z,47.77
2018-09-05T04:33:58.345Z,47.90
2018-09-05T04:36:26.562Z,49.07
2018-09-05T04:38:54.790Z,48.33
2018-09-05T04:41:22.967Z,49.93
2018-09-05T04:43:51.537Z,49.33
2018-09-05T04:46:19.745Z,49.63
2018-09-05T04:48:48.057Z,49.83
2018-09-05T04:51:16.277Z,47.67
2018-09-05T04:53:44.459Z,49.50
2018-09-05T04:56:12.715Z,48.00
2018-09-05T04:58:40.919Z,46.70
2018-09-05T05:01:09.127Z,48.33
2018-09-05T05:03:37.317Z,48.33
2018-09-05T05:06:05.773Z,48.50
2018-09-05T05:08:33.966Z,47.13
2018-09-05T05:11:02.175Z,49.40
2018-09-05T05:13:30.375Z,49.87
2018-09-05T05:15:58.613Z,51.70
2018-09-05T05:18:26.817Z,49.83
2018-09-05T05:20:55.041Z,47.87
2018-09-05T05:23:23.228Z,48.43
2018-09-05T05:25:51.441Z,47.50
2018-09-05T05:28:19.667Z,46.47
2018-09-05T05:30:48.010Z,47.20
2018-09-05T05:33:16.197Z,50.03
2018-09-05T05:35:44.441Z,49.00
2018-09-05T05:38:12.678Z,48.27
2018-09-05T05:40:40.970Z,48.50
2018-09-05T05:43:09.178Z,48.90
2018-09-05T05:45:37.386Z,45.20
2018-09-05T05:48:05.594Z,46.07
2018-09-05T05:50:33.830Z,49.70
2018-09-05T05:53:02.041Z,48.43
2018-09-05T05:55:30.237Z,45.83
2018-09-05T05:57:58.429Z,47.30
2018-09-05T06:00:26.682Z,46.07
2018-09-05T06:02:55.945Z,43.13
2018-09-05T06:05:24.175Z,43.03
2018-09-05T06:07:52.459Z,41.50
2018-09-05T06:10:24.918Z,45.80
2018-09-05T06:12:53.601Z,44.30
2018-09-05T06:15:21.803Z,41.63
2018-09-05T06:17:50.032Z,41.53
2018-09-05T06:20:18.246Z,41.50
2018-09-05T06:22:46.678Z,41.63
2018-09-05T06:25:14.857Z,39.77
2018-09-05T06:27:43.151Z,42.07
2018-09-05T06:30:11.330Z,38.90
2018-09-05T06:32:39.509Z,39.67
2018-09-05T06:35:07.781Z,39.57
2018-09-05T06:37:36.061Z,42.70
2018-09-05T06:40:04.335Z,40.63
2018-09-05T06:42:32.515Z,40.80
2018-09-05T06:45:00.801Z,40.30
2018-09-05T06:47:28.910Z,38.50
2018-09-05T06:49:57.110Z,40.07
2018-09-05T06:52:25.351Z,37.77
2018-09-05T06:54:53.569Z,39.47
2018-09-05T06:57:21.807Z,38.40
2018-09-05T06:59:49.989Z,41.77
2018-09-05T07:02:18.226Z,41.10
2018-09-05T07:04:46.449Z,42.93
2018-09-05T07:07:14.653Z,42.40
2018-09-05T07:09:42.838Z,42.40
2018-09-05T07:12:11.028Z,44.23
2018-09-05T07:14:39.341Z,43.90
2018-09-05T07:17:07.535Z,42.90
2018-09-05T07:19:35.739Z,43.17
2018-09-05T07:22:03.961Z,43.73
2018-09-05T07:24:32.154Z,41.27
2018-09-05T07:27:00.416Z,41.40
2018-09-05T07:29:28.601Z,39.37
2018-09-05T07:31:56.798Z,40.73
2018-09-05T07:34:24.977Z,40.90
2018-09-05T07:36:53.169Z,39.77
2018-09-05T07:39:21.362Z,39.90
2018-09-05T07:41:49.554Z,38.80
2018-09-05T07:44:17.741Z,39.80
2018-09-05T07:46:45.938Z,37.50
2018-09-05T07:49:14.148Z,37.37
2018-09-05T07:51:42.346Z,36.87
2018-09-05T07:54:10.589Z,34.97
2018-09-05T07:56:38.837Z,36.70
2018-09-05T07:59:07.081Z,34.67
2018-09-05T08:01:35.333Z,34.77
2018-09-05T08:04:03.542Z,35.60
2018-09-05T08:06:31.746Z,36.23
2018-09-05T08:08:59.941Z,35.30
2018-09-05T08:11:28.137Z,36.60
2018-09-05T08:13:56.327Z,36.77
2018-09-05T08:16:24.538Z,37.47
2018-09-05T08:18:52.766Z,35.60
2018-09-05T08:21:20.957Z,34.97
2018-09-05T08:23:49.143Z,37.73
2018-09-05T08:26:17.325Z,36.67
2018-09-05T08:28:45.618Z,38.53
2018-09-05T08:31:13.793Z,35.90
2018-09-05T08:33:41.991Z,35.73
2018-09-05T08:36:10.475Z,35.70
2018-09-05T08:38:39.335Z,36.27
2018-09-05T08:41:09.808Z,35.00
2018-09-05T08:43:38.755Z,34.40
2018-09-05T08:46:07.148Z,36.50
2018-09-05T08:48:35.360Z,36.37
2018-09-05T08:51:03.793Z,37.07
2018-09-05T08:53:32.018Z,36.70
2018-09-05T08:56:00.301Z,37.33
2018-09-05T08:58:28.557Z,33.60
2018-09-05T09:00:56.800Z,35.30
2018-09-05T09:03:25.012Z,33.67
2018-09-05T09:05:53.482Z,32.83
2018-09-05T09:08:21.674Z,34.80
2018-09-05T09:10:49.901Z,33.93
2018-09-05T09:13:18.168Z,33.60
2018-09-05T09:15:50.054Z,35.33
2018-09-05T09:18:19.501Z,34.67
2018-09-05T09:20:47.890Z,33.70
2018-09-05T09:23:16.223Z,31.63
2018-09-05T09:25:44.482Z,33.37
2018-09-05T09:28:12.785Z,34.90
2018-09-05T09:30:40.949Z,33.00
2018-09-05T09:33:09.570Z,33.57
2018-09-05T09:35:37.858Z,34.47
2018-09-05T09:38:06.086Z,33.37
2018-09-05T09:40:34.399Z,35.60
2018-09-05T09:43:02.641Z,31.13
2018-09-05T09:45:30.978Z,30.77
2018-09-05T09:47:59.237Z,32.53
2018-09-05T09:50:27.490Z,33.93
2018-09-05T09:52:55.807Z,30.40
2018-09-05T09:55:24.017Z,31.20
2018-09-05T09:57:52.268Z,31.33
2018-09-05T10:00:25.859Z,31.90
2018-09-05T10:02:59.430Z,32.13
2018-09-05T10:05:32.945Z,33.90
2018-09-05T10:08:06.420Z,32.70
2018-09-05T10:10:40.102Z,30.50
2018-09-05T10:13:17.562Z,30.90
2018-09-05T10:15:51.258Z,29.77
2018-09-05T10:18:25.070Z,33.47
2018-09-05T10:20:53.477Z,32.50
2018-09-05T10:23:21.733Z,29.20
2018-09-05T10:25:50.059Z,28.73
2018-09-05T10:28:18.330Z,27.70
2018-09-05T10:30:46.909Z,30.67
2018-09-05T10:33:15.355Z,30.57
2018-09-05T10:35:43.573Z,28.50
2018-09-05T10:38:11.875Z,28.63
2018-09-05T10:40:40.262Z,29.90
2018-09-05T10:43:08.493Z,31.00
2018-09-05T10:45:36.728Z,30.00
2018-09-05T10:48:05.067Z,31.23
2018-09-05T10:50:33.498Z,34.50
2018-09-05T10:53:01.675Z,31.93
2018-09-05T10:55:29.937Z,27.90
2018-09-05T10:57:58.223Z,32.17
2018-09-05T11:00:26.388Z,30.63
2018-09-05T11:02:54.599Z,30.43
2018-09-05T11:05:22.821Z,29.80
2018-09-05T11:07:51.009Z,27.53
2018-09-05T11:10:19.220Z,30.10
2018-09-05T11:12:47.416Z,30.73
2018-09-05T11:15:15.618Z,29.30
2018-09-05T11:17:43.809Z,28.83
2018-09-05T11:20:12.658Z,28.63
2018-09-05T11:22:41.436Z,29.23
2018-09-05T11:25:09.633Z,29.60
2018-09-05T11:27:37.895Z,28.40
2018-09-05T11:30:06.210Z,28.07
2018-09-05T11:32:34.452Z,28.03
2018-09-05T11:35:02.745Z,28.57
2018-09-05T11:37:31.700Z,28.23
2018-09-05T11:39:59.929Z,27.13
2018-09-05T11:42:28.185Z,27.00
2018-09-05T11:44:56.404Z,28.33
2018-09-05T11:47:24.618Z,26.10
2018-09-05T11:49:52.847Z,25.80
2018-09-05T11:52:21.045Z,25.90
2018-09-05T11:54:49.228Z,26.40
2018-09-05T11:57:17.576Z,27.17
2018-09-05T11:59:45.709Z,26.00
2018-09-05T12:02:14.247Z,24.47
2018-09-05T12:04:42.405Z,25.47
2018-09-05T12:07:11.059Z,25.53
2018-09-05T12:09:39.261Z,25.53
2018-09-05T12:12:07.526Z,24.60
2018-09-05T12:14:35.678Z,27.40
2018-09-05T12:17:03.886Z,26.47
2018-09-05T12:19:32.098Z,24.70
2018-09-05T12:22:00.318Z,25.60
2018-09-05T12:24:28.501Z,25.77
2018-09-05T12:26:56.698Z,25.13
2018-09-05T12:29:25.069Z,27.00
2018-09-05T12:31:53.271Z,26.30
2018-09-05T12:34:21.492Z,26.20
2018-09-05T12:36:49.665Z,25.07
2018-09-05T12:39:17.913Z,25.93
2018-09-05T12:41:46.146Z,24.80
2018-09-05T12:44:14.362Z,25.33
2018-09-05T12:46:42.533Z,24.27
2018-09-05T12:49:10.717Z,25.10
2018-09-05T12:51:38.955Z,25.00
2018-09-05T12:54:07.590Z,27.13
2018-09-05T12:56:35.777Z,25.73
2018-09-05T12:59:03.986Z,25.40
2018-09-05T13:01:32.262Z,24.77
2018-09-05T13:04:00.479Z,25.37
2018-09-05T13:06:28.656Z,23.10
2018-09-05T13:08:56.873Z,23.43
2018-09-05T13:11:25.153Z,23.63
2018-09-05T13:13:53.288Z,23.03
2018-09-05T13:16:21.514Z,23.93
2018-09-05T13:18:49.743Z,23.70
2018-09-05T13:21:17.943Z,24.17
2018-09-05T13:23:46.117Z,24.23
2018-09-05T13:26:14.334Z,23.00
2018-09-05T13:28:42.522Z,23.63
2018-09-05T13:31:10.713Z,23.47
2018-09-05T13:33:38.896Z,23.90
2018-09-05T13:36:07.113Z,22.50
2018-09-05T13:38:35.306Z,22.53
2018-09-05T13:41:03.530Z,23.93
2018-09-05T13:43:31.730Z,22.93
2018-09-05T13:45:59.898Z,24.17
2018-09-05T13:48:28.109Z,24.00
2018-09-05T13:50:56.318Z,23.27
2018-09-05T13:53:24.503Z,26.20
2018-09-05T13:55:52.685Z,24.03
2018-09-05T13:58:20.878Z,25.27
2018-09-05T14:00:49.122Z,25.40
2018-09-05T14:03:17.306Z,26.20
2018-09-05T14:05:45.508Z,25.90
2018-09-05T14:08:14.025Z,24.30
2018-09-05T14:10:42.230Z,24.40
2018-09-05T14:13:10.418Z,26.90
2018-09-05T14:15:38.621Z,26.70
2018-09-05T14:18:06.818Z,24.40
2018-09-05T14:20:35.027Z,24.27
2018-09-05T14:23:03.195Z,24.00
2018-09-05T14:25:31.420Z,24.43
2018-09-05T14:27:59.629Z,23.27
2018-09-05T14:30:27.840Z,22.63
2018-09-05T14:32:56.063Z,24.63
2018-09-05T14:35:24.249Z,21.97
2018-09-05T14:37:52.434Z,24.13
2018-09-05T14:40:20.642Z,23.17
2018-09-05T14:42:48.837Z,23.60
2018-09-05T14:45:17.017Z,23.63
2018-09-05T14:47:45.217Z,24.30
2018-09-05T14:50:13.403Z,22.67
2018-09-05T14:52:41.626Z,24.70
2018-09-05T14:55:09.830Z,24.80
2018-09-05T14:57:38.032Z,23.03
2018-09-05T15:00:06.362Z,23.80
2018-09-05T15:02:34.574Z,25.30
2018-09-05T15:05:02.798Z,23.00
2018-09-05T15:07:31.019Z,23.13
2018-09-05T15:09:59.215Z,23.70
2018-09-05T15:12:27.441Z,23.10
2018-09-05T15:14:56.405Z,23.10
2018-09-05T15:17:27.020Z,23.10
2018-09-05T15:19:55.218Z,24.27
2018-09-05T15:22:23.613Z,22.77
2018-09-05T15:24:51.814Z,23.83
2018-09-05T15:27:20.051Z,24.60
2018-09-05T15:29:48.245Z,23.63
2018-09-05T15:32:16.438Z,24.70
2018-09-05T15:34:44.637Z,24.33
2018-09-05T15:37:12.818Z,22.93
2018-09-05T15:42:39.865Z,23.10
2018-09-05T15:45:08.086Z,22.13
2018-09-05T15:47:36.274Z,22.90
2018-09-05T15:50:04.574Z,22.40
2018-09-05T15:52:32.732Z,23.33
2018-09-05T15:55:00.949Z,22.23
2018-09-05T15:57:29.224Z,23.00
2018-09-05T15:59:57.394Z,22.70
2018-09-05T16:02:25.683Z,23.63
2018-09-05T16:04:53.973Z,24.10
2018-09-05T16:07:22.209Z,23.50
2018-09-05T16:09:50.466Z,23.10
2018-09-05T16:12:18.657Z,22.80
2018-09-05T16:14:47.332Z,23.10
2018-09-05T16:17:15.533Z,22.60
2018-09-05T16:19:43.745Z,22.07
2018-09-05T16:22:11.950Z,23.00
2018-09-05T16:24:40.141Z,22.97
2018-09-05T16:27:08.377Z,24.10
2018-09-05T16:29:36.598Z,23.23
2018-09-05T16:32:04.799Z,22.17
2018-09-05T16:34:33.013Z,23.63
2018-09-05T16:37:01.210Z,24.83
2018-09-05T16:39:29.485Z,23.40
2018-09-05T16:41:57.873Z,23.63
2018-09-05T16:44:26.081Z,24.07
2018-09-05T16:46:54.299Z,23.80
2018-09-05T16:49:22.489Z,24.67
2018-09-05T16:51:50.693Z,24.03
2018-09-05T16:54:18.916Z,24.63
2018-09-05T16:56:47.133Z,26.03
2018-09-05T16:59:15.333Z,23.80
2018-09-05T17:01:43.581Z,24.37
2018-09-05T17:04:11.788Z,22.60
2018-09-05T17:06:40.009Z,23.10
2018-09-05T17:09:10.346Z,23.73
2018-09-05T17:11:38.578Z,24.37
2018-09-05T17:14:06.849Z,24.17
2018-09-05T17:16:35.082Z,26.57
2018-09-05T17:19:03.742Z,24.93
2018-09-05T17:21:32.213Z,27.17
2018-09-05T17:24:00.562Z,27.03
2018-09-05T17:26:28.794Z,24.70
2018-09-05T17:28:57.139Z,26.43
2018-09-05T17:31:25.437Z,24.93
2018-09-05T17:33:53.697Z,25.47
2018-09-05T17:36:22.089Z,25.03
2018-09-05T17:38:50.394Z,29.07
2018-09-05T17:41:18.619Z,29.73
2018-09-05T17:43:46.831Z,27.77
2018-09-05T17:46:15.102Z,25.80
2018-09-05T17:48:43.369Z,26.20
2018-09-05T17:51:11.554Z,27.20
2018-09-05T17:53:39.814Z,25.27
2018-09-05T17:56:07.961Z,28.37
2018-09-05T17:58:36.249Z,26.13
2018-09-05T18:01:05.776Z,27.33
2018-09-05T18:03:34.004Z,25.37
2018-09-05T18:06:02.224Z,25.63
2018-09-05T18:08:30.410Z,25.60
2018-09-05T18:10:59.570Z,26.27
2018-09-05T18:13:27.738Z,26.40
2018-09-05T18:15:55.969Z,25.30
2018-09-05T18:18:24.165Z,26.83
2018-09-05T18:20:52.379Z,28.00
2018-09-05T18:23:20.563Z,26.13
2018-09-05T18:25:48.824Z,28.73
2018-09-05T18:28:17.090Z,27.30
2018-09-05T18:30:45.265Z,27.37
2018-09-05T18:33:13.466Z,28.83
2018-09-05T18:35:41.730Z,29.00
2018-09-05T18:38:09.977Z,27.50
2018-09-05T18:40:38.190Z,29.57
2018-09-05T18:43:06.900Z,29.13
2018-09-05T18:45:35.158Z,29.30
2018-09-05T18:48:03.473Z,29.47
2018-09-05T18:50:31.738Z,32.10
2018-09-05T18:53:05.629Z,31.87
2018-09-05T18:55:33.982Z,30.60
2018-09-05T18:58:02.420Z,29.47
2018-09-05T19:00:30.752Z,31.33
2018-09-05T19:02:59.015Z,30.83
2018-09-05T19:05:27.345Z,30.50
2018-09-05T19:07:54.601Z,30.70
2018-09-05T19:10:22.946Z,30.67
2018-09-05T19:12:51.421Z,28.83
2018-09-05T19:15:19.642Z,31.80
2018-09-05T19:17:47.888Z,30.23
2018-09-05T19:20:16.265Z,30.50
2018-09-05T19:22:44.548Z,31.23
2018-09-05T19:25:12.870Z,30.37
2018-09-05T19:27:41.146Z,30.60
2018-09-05T19:30:09.435Z,30.03
2018-09-05T19:32:37.953Z,30.47
2018-09-05T19:35:06.274Z,31.07
2018-09-05T19:37:35.052Z,31.47
2018-09-05T19:40:03.436Z,28.80
2018-09-05T19:42:31.778Z,30.03
2018-09-05T19:45:00.082Z,29.33
2018-09-05T19:47:28.337Z,31.80
2018-09-05T19:49:56.786Z,29.60
2018-09-05T19:52:25.161Z,31.50
2018-09-05T19:54:53.429Z,31.47
2018-09-05T19:57:21.803Z,32.30
2018-09-05T19:59:50.133Z,29.53
2018-09-05T20:02:18.789Z,30.80
2018-09-05T20:04:47.081Z,29.20
2018-09-05T20:07:15.261Z,29.40
2018-09-05T20:09:43.445Z,29.33
2018-09-05T20:12:11.643Z,28.50
2018-09-05T20:14:39.901Z,30.53
2018-09-05T20:17:08.029Z,29.80
2018-09-05T20:19:36.429Z,29.40
2018-09-05T20:22:04.881Z,29.87
2018-09-05T20:24:33.161Z,29.23
2018-09-05T20:27:01.345Z,26.87
2018-09-05T20:29:29.540Z,26.73
2018-09-05T20:31:57.865Z,25.67
2018-09-05T20:34:26.062Z,27.60
2018-09-05T20:36:54.269Z,26.20
2018-09-05T20:39:22.466Z,29.17
2018-09-05T20:41:50.665Z,27.37
2018-09-05T20:44:18.859Z,26.00
2018-09-05T20:46:47.062Z,24.50
2018-09-05T20:49:15.279Z,26.20
2018-09-05T20:51:43.537Z,24.47
2018-09-05T20:54:11.863Z,26.10
2018-09-05T20:56:40.117Z,25.70
2018-09-05T20:59:08.409Z,25.67
2018-09-05T21:01:36.697Z,24.93
2018-09-05T21:04:04.989Z,26.80
2018-09-05T21:06:33.511Z,25.23
2018-09-05T21:09:01.761Z,24.73
2018-09-05T21:11:30.054Z,25.70
2018-09-05T21:13:58.354Z,25.87
2018-09-05T21:16:26.666Z,27.10
2018-09-05T21:18:54.926Z,26.33
2018-09-05T21:21:23.210Z,25.20
2018-09-05T21:23:51.519Z,25.60
2018-09-05T21:26:19.792Z,26.83
2018-09-05T21:28:48.061Z,27.50
2018-09-05T21:31:16.793Z,27.80
2018-09-05T21:33:45.054Z,26.37
2018-09-05T21:36:13.361Z,27.83
2018-09-05T21:38:41.697Z,27.10
2018-09-05T21:41:09.910Z,28.70
2018-09-05T21:43:38.137Z,30.70
2018-09-05T21:46:06.629Z,30.60
2018-09-05T21:48:34.906Z,29.03
2018-09-05T21:51:03.181Z,29.03
2018-09-05T21:53:31.449Z,29.57
2018-09-05T21:55:59.674Z,31.60
2018-09-05T21:58:27.937Z,31.07
2018-09-05T22:00:56.229Z,29.47
2018-09-05T22:03:25.213Z,31.00
2018-09-05T22:05:53.497Z,30.03
2018-09-05T22:08:21.705Z,29.83
2018-09-05T22:10:50.065Z,33.00
2018-09-05T22:13:18.321Z,30.27
2018-09-05T22:15:47.684Z,30.47
2018-09-05T22:18:16.801Z,30.17
2018-09-05T22:20:45.021Z,33.37
2018-09-05T22:23:13.313Z,32.13
2018-09-05T22:25:41.574Z,29.70
2018-09-05T22:28:09.885Z,30.37
2018-09-05T22:30:38.162Z,30.40
2018-09-05T22:33:06.692Z,33.53
2018-09-05T22:35:34.889Z,30.93
2018-09-05T22:38:03.113Z,32.60
2018-09-05T22:40:35.473Z,33.73
2018-09-05T22:43:15.066Z,31.37
2018-09-05T22:45:54.592Z,33.50
2018-09-05T22:48:42.497Z,31.57
2018-09-05T22:51:35.534Z,33.60
2018-09-05T22:54:18.425Z,34.10
2018-09-05T22:57:08.047Z,32.80
2018-09-05T22:59:47.695Z,32.27
2018-09-05T23:04:35.742Z,32.00
2018-09-05T23:07:20.551Z,34.97
2018-09-05T23:09:59.950Z,35.00
2018-09-05T23:12:39.340Z,35.13
2018-09-05T23:15:18.836Z,36.03
2018-09-05T23:20:02.819Z,34.87
2018-09-05T23:23:45.114Z,37.20
2018-09-05T23:26:13.370Z,38.20
2018-09-05T23:28:41.614Z,34.60
2018-09-05T23:31:09.964Z,36.67
2018-09-05T23:33:38.199Z,39.10
2018-09-05T23:36:06.552Z,39.17
2018-09-05T23:38:34.778Z,39.53
2018-09-05T23:41:03.111Z,36.93
2018-09-05T23:43:31.352Z,37.53
2018-09-05T23:45:59.638Z,36.23
2018-09-05T23:48:27.918Z,38.13
2018-09-05T23:50:56.422Z,36.07
2018-09-05T23:53:24.996Z,38.37
2018-09-05T23:55:53.202Z,39.33
2018-09-05T23:58:21.781Z,36.67
